sensor_id;sensor_type;location;lat;lon;timestamp;pressure;altitude;pressure_sealevel;temperature;humidity
74270;BME280;62754;48.252;11.654;2022-11-12T00:01:21;97742.34;;;2.51;91.16
74270;BME280;62754;48.252;11.654;2022-11-12T00:03:47;97741.38;;;2.58;91.33
74270;BME280;62754;48.252;11.654;2022-11-12T00:06:13;97750.13;;;2.45;91.39
74270;BME280;62754;48.252;11.654;2022-11-12T00:08:38;97750.06;;;2.48;91.92
74270;BME280;62754;48.252;11.654;2022-11-12T00:11:04;97745.13;;;2.42;92.28
74270;BME280;62754;48.252;11.654;2022-11-12T00:13:30;97745.97;;;2.41;92.68
74270;BME280;62754;48.252;11.654;2022-11-12T00:15:56;97748.66;;;2.35;92.33
74270;BME280;62754;48.252;11.654;2022-11-12T00:18:22;97752.66;;;2.47;92.66
74270;BME280;62754;48.252;11.654;2022-11-12T00:20:47;97753.31;;;2.55;92.74
74270;BME280;62754;48.252;11.654;2022-11-12T00:23:13;97760.22;;;2.48;92.94
74270;BME280;62754;48.252;11.654;2022-11-12T00:25:39;97755.88;;;2.53;92.69
74270;BME280;62754;48.252;11.654;2022-11-12T00:28:07;97756.03;;;2.47;92.45
74270;BME280;62754;48.252;11.654;2022-11-12T00:30:35;97755.69;;;2.62;92.19
74270;BME280;62754;48.252;11.654;2022-11-12T00:33:02;97761.31;;;2.36;92.97
74270;BME280;62754;48.252;11.654;2022-11-12T00:35:32;97755.22;;;2.45;93.20
74270;BME280;62754;48.252;11.654;2022-11-12T00:37:59;97747.44;;;2.51;92.54
74270;BME280;62754;48.252;11.654;2022-11-12T00:40:25;97741.91;;;2.34;92.07
74270;BME280;62754;48.252;11.654;2022-11-12T00:42:51;97748.28;;;2.52;92.10
74270;BME280;62754;48.252;11.654;2022-11-12T00:45:18;97750.13;;;2.45;92.04
74270;BME280;62754;48.252;11.654;2022-11-12T00:47:44;97749.59;;;2.31;91.41
74270;BME280;62754;48.252;11.654;2022-11-12T00:50:10;97752.25;;;2.25;92.52
74270;BME280;62754;48.252;11.654;2022-11-12T00:52:36;97746.47;;;2.18;91.77
74270;BME280;62754;48.252;11.654;2022-11-12T00:55:02;97748.75;;;2.30;91.30
74270;BME280;62754;48.252;11.654;2022-11-12T00:57:28;97755.03;;;2.13;92.02
74270;BME280;62754;48.252;11.654;2022-11-12T00:59:54;97749.13;;;2.12;92.16
74270;BME280;62754;48.252;11.654;2022-11-12T01:02:19;97743.25;;;2.09;92.87
74270;BME280;62754;48.252;11.654;2022-11-12T01:04:45;97732.28;;;2.07;92.63
74270;BME280;62754;48.252;11.654;2022-11-12T01:07:11;97729.53;;;2.17;92.77
74270;BME280;62754;48.252;11.654;2022-11-12T01:09:37;97720.13;;;2.21;92.16
74270;BME280;62754;48.252;11.654;2022-11-12T01:12:03;97727.97;;;2.10;93.19
74270;BME280;62754;48.252;11.654;2022-11-12T01:14:28;97737.06;;;2.22;92.80
74270;BME280;62754;48.252;11.654;2022-11-12T01:16:54;97726.66;;;2.32;92.04
74270;BME280;62754;48.252;11.654;2022-11-12T01:19:20;97726.81;;;2.26;93.05
74270;BME280;62754;48.252;11.654;2022-11-12T01:21:45;97727.56;;;2.31;92.56
74270;BME280;62754;48.252;11.654;2022-11-12T01:24:11;97726.22;;;2.52;92.00
74270;BME280;62754;48.252;11.654;2022-11-12T01:26:37;97718.91;;;2.38;91.88
74270;BME280;62754;48.252;11.654;2022-11-12T01:29:04;97718.84;;;2.42;92.24
74270;BME280;62754;48.252;11.654;2022-11-12T01:31:34;97712.94;;;2.39;92.63
74270;BME280;62754;48.252;11.654;2022-11-12T01:34:03;97711.28;;;2.38;92.42
74270;BME280;62754;48.252;11.654;2022-11-12T01:36:32;97712.56;;;2.56;92.24
74270;BME280;62754;48.252;11.654;2022-11-12T01:38:58;97711.91;;;2.48;92.45
74270;BME280;62754;48.252;11.654;2022-11-12T01:41:29;97707.72;;;2.46;92.50
74270;BME280;62754;48.252;11.654;2022-11-12T01:46:57;97697.47;;;2.50;92.55
74270;BME280;62754;48.252;11.654;2022-11-12T01:49:43;97698.97;;;2.59;92.32
74270;BME280;62754;48.252;11.654;2022-11-12T01:52:19;97702.38;;;2.56;92.24
74270;BME280;62754;48.252;11.654;2022-11-12T01:54:48;97702.38;;;2.56;92.44
74270;BME280;62754;48.252;11.654;2022-11-12T01:57:22;97710.75;;;2.61;92.16
74270;BME280;62754;48.252;11.654;2022-11-12T01:59:50;97702.97;;;2.67;92.34
74270;BME280;62754;48.252;11.654;2022-11-12T02:02:17;97704.16;;;2.54;92.47
74270;BME280;62754;48.252;11.654;2022-11-12T02:04:44;97699.75;;;2.61;93.16
74270;BME280;62754;48.252;11.654;2022-11-12T02:07:11;97693.69;;;2.66;92.41
74270;BME280;62754;48.252;11.654;2022-11-12T02:09:37;97693.72;;;2.65;92.65
74270;BME280;62754;48.252;11.654;2022-11-12T02:12:03;97692.69;;;2.72;92.79
74270;BME280;62754;48.252;11.654;2022-11-12T02:14:29;97701.44;;;2.62;92.85
74270;BME280;62754;48.252;11.654;2022-11-12T02:16:56;97705.44;;;2.70;92.49
74270;BME280;62754;48.252;11.654;2022-11-12T02:19:22;97700.25;;;2.75;92.28
74270;BME280;62754;48.252;11.654;2022-11-12T02:21:48;97689.22;;;2.76;91.97
74270;BME280;62754;48.252;11.654;2022-11-12T02:26:42;97696.44;;;2.93;91.87
74270;BME280;62754;48.252;11.654;2022-11-12T02:29:10;97693.09;;;2.91;91.85
74270;BME280;62754;48.252;11.654;2022-11-12T02:34:39;97679.97;;;3.06;90.84
74270;BME280;62754;48.252;11.654;2022-11-12T02:37:06;97662.16;;;3.06;90.73
74270;BME280;62754;48.252;11.654;2022-11-12T02:39:32;97678.25;;;3.08;90.87
74270;BME280;62754;48.252;11.654;2022-11-12T02:41:58;97674.66;;;3.16;90.99
74270;BME280;62754;48.252;11.654;2022-11-12T02:44:24;97672.03;;;3.18;90.77
74270;BME280;62754;48.252;11.654;2022-11-12T02:46:50;97675.44;;;3.17;90.84
74270;BME280;62754;48.252;11.654;2022-11-12T02:49:15;97676.34;;;3.16;90.55
74270;BME280;62754;48.252;11.654;2022-11-12T02:51:41;97668.06;;;3.08;90.89
74270;BME280;62754;48.252;11.654;2022-11-12T02:54:07;97671.69;;;2.98;91.13
74270;BME280;62754;48.252;11.654;2022-11-12T02:56:33;97676.75;;;2.99;91.43
74270;BME280;62754;48.252;11.654;2022-11-12T02:58:58;97683.47;;;3.02;90.94
74270;BME280;62754;48.252;11.654;2022-11-12T03:01:24;97687.28;;;2.85;91.72
74270;BME280;62754;48.252;11.654;2022-11-12T03:03:50;97684.63;;;2.90;91.90
74270;BME280;62754;48.252;11.654;2022-11-12T03:06:16;97683.00;;;2.87;91.90
74270;BME280;62754;48.252;11.654;2022-11-12T03:08:42;97689.03;;;2.83;92.07
74270;BME280;62754;48.252;11.654;2022-11-12T03:11:10;97687.44;;;2.79;91.93
74270;BME280;62754;48.252;11.654;2022-11-12T03:13:36;97687.41;;;2.81;91.50
74270;BME280;62754;48.252;11.654;2022-11-12T03:16:02;97689.88;;;2.84;91.46
74270;BME280;62754;48.252;11.654;2022-11-12T03:18:28;97682.31;;;2.81;91.91
74270;BME280;62754;48.252;11.654;2022-11-12T03:20:54;97688.44;;;2.74;91.88
74270;BME280;62754;48.252;11.654;2022-11-12T03:23:20;97690.31;;;2.66;92.51
74270;BME280;62754;48.252;11.654;2022-11-12T03:25:46;97692.03;;;2.64;92.19
74270;BME280;62754;48.252;11.654;2022-11-12T03:28:13;97687.81;;;2.63;91.68
74270;BME280;62754;48.252;11.654;2022-11-12T03:30:41;97693.25;;;2.48;92.03
74270;BME280;62754;48.252;11.654;2022-11-12T03:33:09;97700.28;;;2.36;92.60
74270;BME280;62754;48.252;11.654;2022-11-12T03:35:36;97692.50;;;2.44;92.79
74270;BME280;62754;48.252;11.654;2022-11-12T03:38:02;97698.91;;;2.60;92.32
74270;BME280;62754;48.252;11.654;2022-11-12T03:40:28;97699.75;;;2.61;92.50
74270;BME280;62754;48.252;11.654;2022-11-12T03:42:55;97689.47;;;2.65;91.82
74270;BME280;62754;48.252;11.654;2022-11-12T03:45:23;97695.13;;;2.39;93.15
74270;BME280;62754;48.252;11.654;2022-11-12T03:47:51;97699.94;;;2.53;92.31
74270;BME280;62754;48.252;11.654;2022-11-12T03:50:19;97696.69;;;2.47;92.73
74270;BME280;62754;48.252;11.654;2022-11-12T03:52:50;97701.66;;;2.51;93.10
74270;BME280;62754;48.252;11.654;2022-11-12T03:55:18;97697.47;;;2.50;93.03
74270;BME280;62754;48.252;11.654;2022-11-12T03:57:44;97697.78;;;2.72;91.74
74270;BME280;62754;48.252;11.654;2022-11-12T04:00:12;97697.88;;;2.67;91.30
74270;BME280;62754;48.252;11.654;2022-11-12T04:02:38;97711.59;;;2.62;91.51
74270;BME280;62754;48.252;11.654;2022-11-12T04:05:05;97703.91;;;2.63;91.83
74270;BME280;62754;48.252;11.654;2022-11-12T04:07:31;97703.06;;;2.63;91.94
74270;BME280;62754;48.252;11.654;2022-11-12T04:09:57;97700.22;;;2.76;91.65
74270;BME280;62754;48.252;11.654;2022-11-12T04:12:22;97702.78;;;2.76;91.52
74270;BME280;62754;48.252;11.654;2022-11-12T04:14:48;97707.28;;;2.65;91.62
74270;BME280;62754;48.252;11.654;2022-11-12T04:17:14;97702.47;;;2.53;91.77
74270;BME280;62754;48.252;11.654;2022-11-12T04:19:39;97710.09;;;2.53;92.33
74270;BME280;62754;48.252;11.654;2022-11-12T04:22:10;97710.97;;;2.52;92.88
74270;BME280;62754;48.252;11.654;2022-11-12T04:24:38;97703.22;;;2.58;92.16
74270;BME280;62754;48.252;11.654;2022-11-12T04:27:04;97699.94;;;2.53;91.60
74270;BME280;62754;48.252;11.654;2022-11-12T04:29:30;97701.44;;;2.60;91.98
74270;BME280;62754;48.252;11.654;2022-11-12T04:31:56;97703.81;;;2.68;92.62
74270;BME280;62754;48.252;11.654;2022-11-12T04:34:22;97702.91;;;2.70;91.79
74270;BME280;62754;48.252;11.654;2022-11-12T04:36:48;97708.31;;;2.57;91.96
74270;BME280;62754;48.252;11.654;2022-11-12T04:39:13;97696.19;;;2.68;91.97
74270;BME280;62754;48.252;11.654;2022-11-12T04:41:39;97699.09;;;2.53;91.75
74270;BME280;62754;48.252;11.654;2022-11-12T04:44:10;97695.94;;;2.42;92.34
74270;BME280;62754;48.252;11.654;2022-11-12T04:46:36;97695.88;;;2.45;92.70
74270;BME280;62754;48.252;11.654;2022-11-12T04:49:02;97700.94;;;2.46;92.78
74270;BME280;62754;48.252;11.654;2022-11-12T04:51:28;97712.53;;;2.58;92.53
74270;BME280;62754;48.252;11.654;2022-11-12T04:53:53;97710.88;;;2.57;92.80
74270;BME280;62754;48.252;11.654;2022-11-12T04:56:19;97702.38;;;2.56;92.40
74270;BME280;62754;48.252;11.654;2022-11-12T04:58:45;97707.53;;;2.55;92.83
74270;BME280;62754;48.252;11.654;2022-11-12T05:01:11;97704.06;;;2.57;92.90
74270;BME280;62754;48.252;11.654;2022-11-12T05:03:37;97701.56;;;2.56;93.06
74270;BME280;62754;48.252;11.654;2022-11-12T05:06:04;97704.84;;;2.61;92.75
74270;BME280;62754;48.252;11.654;2022-11-12T05:08:30;97704.34;;;2.45;92.66
74270;BME280;62754;48.252;11.654;2022-11-12T05:10:56;97705.53;;;2.30;92.99
74270;BME280;62754;48.252;11.654;2022-11-12T05:13:22;97701.13;;;2.37;92.80
74270;BME280;62754;48.252;11.654;2022-11-12T05:15:48;97705.03;;;2.52;93.34
74270;BME280;62754;48.252;11.654;2022-11-12T05:18:13;97703.41;;;2.49;93.26
74270;BME280;62754;48.252;11.654;2022-11-12T05:20:39;97710.19;;;2.49;92.75
74270;BME280;62754;48.252;11.654;2022-11-12T05:23:05;97705.16;;;2.47;92.38
74270;BME280;62754;48.252;11.654;2022-11-12T05:25:31;97707.72;;;2.47;92.40
74270;BME280;62754;48.252;11.654;2022-11-12T05:27:56;97705.09;;;2.49;92.71
74270;BME280;62754;48.252;11.654;2022-11-12T05:30:22;97707.47;;;2.56;92.56
74270;BME280;62754;48.252;11.654;2022-11-12T05:32:48;97709.84;;;2.64;92.33
74270;BME280;62754;48.252;11.654;2022-11-12T05:35:14;97712.31;;;2.67;92.24
74270;BME280;62754;48.252;11.654;2022-11-12T05:37:39;97708.16;;;2.64;91.81
74270;BME280;62754;48.252;11.654;2022-11-12T05:40:05;97714.28;;;2.56;93.24
74270;BME280;62754;48.252;11.654;2022-11-12T05:42:31;97712.66;;;2.52;93.49
74270;BME280;62754;48.252;11.654;2022-11-12T05:44:57;97711.13;;;2.46;92.73
74270;BME280;62754;48.252;11.654;2022-11-12T05:47:23;97717.25;;;2.36;91.77
74270;BME280;62754;48.252;11.654;2022-11-12T05:49:48;97721.97;;;2.53;91.83
74270;BME280;62754;48.252;11.654;2022-11-12T05:52:14;97725.50;;;2.47;90.92
74270;BME280;62754;48.252;11.654;2022-11-12T05:54:40;97724.09;;;2.34;90.86
74270;BME280;62754;48.252;11.654;2022-11-12T05:57:06;97724.09;;;2.32;90.90
74270;BME280;62754;48.252;11.654;2022-11-12T05:59:31;97730.44;;;2.15;91.71
74270;BME280;62754;48.252;11.654;2022-11-12T06:01:57;97718.34;;;2.24;91.84
74270;BME280;62754;48.252;11.654;2022-11-12T06:04:23;97723.94;;;2.42;90.72
74270;BME280;62754;48.252;11.654;2022-11-12T06:06:49;97735.34;;;2.24;90.93
74270;BME280;62754;48.252;11.654;2022-11-12T06:09:14;97730.25;;;2.24;91.75
74270;BME280;62754;48.252;11.654;2022-11-12T06:11:40;97733.59;;;2.24;91.15
74270;BME280;62754;48.252;11.654;2022-11-12T06:14:06;97736.63;;;2.02;92.41
74270;BME280;62754;48.252;11.654;2022-11-12T06:16:32;97737.19;;;2.16;91.54
74270;BME280;62754;48.252;11.654;2022-11-12T06:18:58;97732.16;;;2.13;91.72
74270;BME280;62754;48.252;11.654;2022-11-12T06:21:24;97729.25;;;2.31;91.82
74270;BME280;62754;48.252;11.654;2022-11-12T06:23:59;97726.72;;;2.31;91.43
74270;BME280;62754;48.252;11.654;2022-11-12T06:26:27;97740.25;;;2.31;91.10
74270;BME280;62754;48.252;11.654;2022-11-12T06:28:53;97738.66;;;2.26;90.83
74270;BME280;62754;48.252;11.654;2022-11-12T06:31:20;97739.50;;;2.26;90.69
74270;BME280;62754;48.252;11.654;2022-11-12T06:33:46;97737.00;;;2.25;91.20
74270;BME280;62754;48.252;11.654;2022-11-12T06:36:14;97742.06;;;2.25;91.51
74270;BME280;62754;48.252;11.654;2022-11-12T06:38:41;97738.84;;;2.17;91.00
74270;BME280;62754;48.252;11.654;2022-11-12T06:41:09;97735.75;;;2.04;92.12
74270;BME280;62754;48.252;11.654;2022-11-12T06:43:36;97739.84;;;2.10;93.37
74270;BME280;62754;48.252;11.654;2022-11-12T06:46:11;97739.44;;;2.29;92.09
74270;BME280;62754;48.252;11.654;2022-11-12T06:48:37;97736.03;;;2.30;91.02
74270;BME280;62754;48.252;11.654;2022-11-12T06:51:08;97736.78;;;2.35;91.69
74270;BME280;62754;48.252;11.654;2022-11-12T06:53:34;97743.44;;;2.39;91.06
74270;BME280;62754;48.252;11.654;2022-11-12T06:56:02;97747.91;;;2.31;91.54
74270;BME280;62754;48.252;11.654;2022-11-12T06:58:28;97738.16;;;2.09;92.01
74270;BME280;62754;48.252;11.654;2022-11-12T07:00:54;97746.31;;;2.26;91.97
74270;BME280;62754;48.252;11.654;2022-11-12T07:03:20;97742.69;;;2.36;91.43
74270;BME280;62754;48.252;11.654;2022-11-12T07:05:45;97744.34;;;2.38;90.98
74270;BME280;62754;48.252;11.654;2022-11-12T07:08:11;97740.69;;;2.50;90.71
74270;BME280;62754;48.252;11.654;2022-11-12T07:10:37;97738.81;;;2.58;91.15
74270;BME280;62754;48.252;11.654;2022-11-12T07:13:03;97743.78;;;2.63;91.28
74270;BME280;62754;48.252;11.654;2022-11-12T07:15:28;97746.81;;;2.42;91.58
74270;BME280;62754;48.252;11.654;2022-11-12T07:17:54;97752.75;;;2.42;91.64
74270;BME280;62754;48.252;11.654;2022-11-12T07:20:23;97752.16;;;2.29;92.25
74270;BME280;62754;48.252;11.654;2022-11-12T07:22:49;97751.16;;;2.36;91.58
74270;BME280;62754;48.252;11.654;2022-11-12T07:25:14;97750.81;;;2.52;90.94
74270;BME280;62754;48.252;11.654;2022-11-12T07:27:40;97745.03;;;2.45;92.19
74270;BME280;62754;48.252;11.654;2022-11-12T07:30:06;97750.56;;;2.64;91.04
74270;BME280;62754;48.252;11.654;2022-11-12T07:32:32;97752.53;;;2.51;91.43
74270;BME280;62754;48.252;11.654;2022-11-12T07:34:58;97753.84;;;2.69;91.14
74270;BME280;62754;48.252;11.654;2022-11-12T07:37:24;97754.75;;;2.66;90.99
74270;BME280;62754;48.252;11.654;2022-11-12T07:39:49;97750.56;;;2.64;90.71
74270;BME280;62754;48.252;11.654;2022-11-12T07:42:15;97744.88;;;2.53;91.10
74270;BME280;62754;48.252;11.654;2022-11-12T07:44:41;97749.59;;;2.69;91.00
74270;BME280;62754;48.252;11.654;2022-11-12T07:47:07;97748.66;;;2.73;91.42
74270;BME280;62754;48.252;11.654;2022-11-12T07:49:32;97747.75;;;2.74;91.79
74270;BME280;62754;48.252;11.654;2022-11-12T07:51:58;97748.84;;;2.64;91.90
74270;BME280;62754;48.252;11.654;2022-11-12T07:54:24;97743.47;;;2.78;91.47
74270;BME280;62754;48.252;11.654;2022-11-12T07:56:50;97745.22;;;3.11;90.89
74270;BME280;62754;48.252;11.654;2022-11-12T07:59:15;97751.16;;;3.12;91.57
74270;BME280;62754;48.252;11.654;2022-11-12T08:01:41;97748.22;;;3.27;90.15
74270;BME280;62754;48.252;11.654;2022-11-12T08:04:09;97743.97;;;3.27;90.65
74270;BME280;62754;48.252;11.654;2022-11-12T08:06:35;97742.22;;;3.29;89.56
74270;BME280;62754;48.252;11.654;2022-11-12T08:09:05;97743.59;;;3.43;89.64
74270;BME280;62754;48.252;11.654;2022-11-12T08:11:31;97734.28;;;3.40;90.55
74270;BME280;62754;48.252;11.654;2022-11-12T08:13:57;97746.81;;;3.49;90.01
74270;BME280;62754;48.252;11.654;2022-11-12T08:16:23;97746.25;;;3.70;89.80
74270;BME280;62754;48.252;11.654;2022-11-12T08:18:49;97750.78;;;3.59;90.27
74270;BME280;62754;48.252;11.654;2022-11-12T08:21:16;97751.63;;;3.60;89.30
74270;BME280;62754;48.252;11.654;2022-11-12T08:23:42;97748.66;;;3.75;89.03
74270;BME280;62754;48.252;11.654;2022-11-12T08:26:11;97754.13;;;3.61;88.65
74270;BME280;62754;48.252;11.654;2022-11-12T08:28:38;97752.13;;;3.72;88.43
74270;BME280;62754;48.252;11.654;2022-11-12T08:31:08;97745.53;;;3.65;89.66
74270;BME280;62754;48.252;11.654;2022-11-12T08:33:34;97758.66;;;3.82;89.11
74270;BME280;62754;48.252;11.654;2022-11-12T08:36:05;97755.84;;;3.61;90.08
74270;BME280;62754;48.252;11.654;2022-11-12T08:38:31;97760.72;;;3.70;91.15
74270;BME280;62754;48.252;11.654;2022-11-12T08:41:01;97762.78;;;3.87;89.33
74270;BME280;62754;48.252;11.654;2022-11-12T08:43:27;97758.28;;;3.98;89.10
74270;BME280;62754;48.252;11.654;2022-11-12T08:45:53;97762.34;;;4.03;89.09
74270;BME280;62754;48.252;11.654;2022-11-12T08:48:18;97757.00;;;3.81;88.96
74270;BME280;62754;48.252;11.654;2022-11-12T08:50:44;97757.22;;;3.74;89.81
74270;BME280;62754;48.252;11.654;2022-11-12T08:53:12;97759.28;;;3.91;88.74
74270;BME280;62754;48.252;11.654;2022-11-12T08:55:38;97759.81;;;4.02;88.91
74270;BME280;62754;48.252;11.654;2022-11-12T08:58:04;97757.78;;;4.14;87.02
74270;BME280;62754;48.252;11.654;2022-11-12T09:00:33;97766.91;;;3.92;88.19
74270;BME280;62754;48.252;11.654;2022-11-12T09:03:01;97750.13;;;3.83;88.65
74270;BME280;62754;48.252;11.654;2022-11-12T09:05:28;97756.38;;;3.73;90.39
74270;BME280;62754;48.252;11.654;2022-11-12T09:08:03;97764.53;;;4.17;90.51
74270;BME280;62754;48.252;11.654;2022-11-12T09:10:29;97768.38;;;4.01;89.00
74270;BME280;62754;48.252;11.654;2022-11-12T09:12:55;97769.63;;;4.17;87.32
74270;BME280;62754;48.252;11.654;2022-11-12T09:15:21;97765.94;;;4.27;88.52
74270;BME280;62754;48.252;11.654;2022-11-12T09:17:54;97762.94;;;4.13;88.32
74270;BME280;62754;48.252;11.654;2022-11-12T09:20:20;97764.38;;;4.21;89.58
74270;BME280;62754;48.252;11.654;2022-11-12T09:22:45;97766.72;;;4.29;88.71
74270;BME280;62754;48.252;11.654;2022-11-12T09:25:11;97765.28;;;4.50;88.53
74270;BME280;62754;48.252;11.654;2022-11-12T09:27:37;97767.06;;;4.46;88.07
74270;BME280;62754;48.252;11.654;2022-11-12T09:30:03;97777.38;;;4.43;88.98
74270;BME280;62754;48.252;11.654;2022-11-12T09:32:29;97781.34;;;4.24;89.26
74270;BME280;62754;48.252;11.654;2022-11-12T09:34:55;97774.56;;;5.08;88.03
74270;BME280;62754;48.252;11.654;2022-11-12T09:37:20;97771.16;;;5.07;86.41
74270;BME280;62754;48.252;11.654;2022-11-12T09:39:46;97781.00;;;4.92;86.67
74270;BME280;62754;48.252;11.654;2022-11-12T09:42:14;97784.00;;;5.06;87.15
74270;BME280;62754;48.252;11.654;2022-11-12T09:44:42;97778.94;;;5.04;86.27
74270;BME280;62754;48.252;11.654;2022-11-12T09:47:22;97772.63;;;5.14;87.07
74270;BME280;62754;48.252;11.654;2022-11-12T09:49:56;97779.47;;;5.40;85.90
74270;BME280;62754;48.252;11.654;2022-11-12T09:52:27;97780.63;;;5.56;84.19
74270;BME280;62754;48.252;11.654;2022-11-12T09:55:01;97773.09;;;5.27;84.59
74270;BME280;62754;48.252;11.654;2022-11-12T09:57:32;97777.38;;;4.99;86.91
74270;BME280;62754;48.252;11.654;2022-11-12T09:59:57;97778.78;;;5.09;88.87
74270;BME280;62754;48.252;11.654;2022-11-12T10:02:41;97775.53;;;5.04;87.67
74270;BME280;62754;48.252;11.654;2022-11-12T10:10:43;97766.88;;;5.34;85.97
74270;BME280;62754;48.252;11.654;2022-11-12T10:15:58;97765.09;;;5.10;86.72
74270;BME280;62754;48.252;11.654;2022-11-12T10:23:52;97751.03;;;6.00;83.48
74270;BME280;62754;48.252;11.654;2022-11-12T10:26:21;97747.44;;;5.80;83.54
74270;BME280;62754;48.252;11.654;2022-11-12T10:31:36;97739.38;;;5.16;85.61
74270;BME280;62754;48.252;11.654;2022-11-12T10:34:17;97744.34;;;5.20;86.28
74270;BME280;62754;48.252;11.654;2022-11-12T10:37:00;97738.47;;;5.43;85.42
74270;BME280;62754;48.252;11.654;2022-11-12T10:39:43;97723.47;;;6.07;84.85
74270;BME280;62754;48.252;11.654;2022-11-12T10:42:14;97725.19;;;5.58;85.66
74270;BME280;62754;48.252;11.654;2022-11-12T10:44:41;97720.00;;;5.85;83.94
74270;BME280;62754;48.252;11.654;2022-11-12T10:52:33;97720.84;;;5.85;85.14
74270;BME280;62754;48.252;11.654;2022-11-12T10:55:29;97719.81;;;5.91;84.68
74270;BME280;62754;48.252;11.654;2022-11-12T10:58:12;97716.75;;;6.28;84.73
74270;BME280;62754;48.252;11.654;2022-11-12T11:00:56;97715.72;;;6.33;84.85
74270;BME280;62754;48.252;11.654;2022-11-12T11:03:25;97716.97;;;6.45;85.22
74270;BME280;62754;48.252;11.654;2022-11-12T11:06:03;97705.69;;;6.49;84.15
74270;BME280;62754;48.252;11.654;2022-11-12T11:11:16;97704.59;;;6.78;83.15
74270;BME280;62754;48.252;11.654;2022-11-12T11:13:43;97707.31;;;6.51;82.22
74270;BME280;62754;48.252;11.654;2022-11-12T11:16:18;97708.50;;;6.43;83.36
74270;BME280;62754;48.252;11.654;2022-11-12T11:18:48;97699.44;;;6.34;82.51
74270;BME280;62754;48.252;11.654;2022-11-12T11:24:34;97701.34;;;6.29;83.12
74270;BME280;62754;48.252;11.654;2022-11-12T11:32:50;97684.22;;;6.53;82.04
74270;BME280;62754;48.252;11.654;2022-11-12T11:35:26;97700.47;;;6.52;82.78
74270;BME280;62754;48.252;11.654;2022-11-12T11:40:49;97682.97;;;6.18;84.62
74270;BME280;62754;48.252;11.654;2022-11-12T11:52:18;97673.91;;;6.76;82.07
74270;BME280;62754;48.252;11.654;2022-11-12T12:00:21;97673.44;;;6.45;84.28
74270;BME280;62754;48.252;11.654;2022-11-12T12:14:26;97663.56;;;6.99;83.52
74270;BME280;62754;48.252;11.654;2022-11-12T12:19:31;97659.00;;;6.86;83.35
74270;BME280;62754;48.252;11.654;2022-11-12T12:22:00;97655.56;;;6.87;84.07
74270;BME280;62754;48.252;11.654;2022-11-12T12:24:36;97653.19;;;6.82;83.78
74270;BME280;62754;48.252;11.654;2022-11-12T12:27:11;97655.66;;;6.84;83.63
74270;BME280;62754;48.252;11.654;2022-11-12T12:29:42;97651.28;;;6.87;83.68
74270;BME280;62754;48.252;11.654;2022-11-12T12:32:13;97648.84;;;6.62;84.38
74270;BME280;62754;48.252;11.654;2022-11-12T12:34:43;97648.41;;;6.73;84.48
74270;BME280;62754;48.252;11.654;2022-11-12T12:37:24;97644.41;;;6.88;84.32
74270;BME280;62754;48.252;11.654;2022-11-12T12:42:38;97642.25;;;6.99;83.94
74270;BME280;62754;48.252;11.654;2022-11-12T12:45:35;97639.13;;;6.70;84.80
74270;BME280;62754;48.252;11.654;2022-11-12T12:48:11;97638.97;;;6.75;84.84
74270;BME280;62754;48.252;11.654;2022-11-12T12:50:39;97627.69;;;6.79;85.22
74270;BME280;62754;48.252;11.654;2022-11-12T12:55:49;97625.22;;;6.56;85.79
74270;BME280;62754;48.252;11.654;2022-11-12T12:58:24;97618.56;;;6.52;85.56
74270;BME280;62754;48.252;11.654;2022-11-12T13:00:52;97606.91;;;6.65;85.65
74270;BME280;62754;48.252;11.654;2022-11-12T13:06:32;97597.34;;;6.90;84.27
74270;BME280;62754;48.252;11.654;2022-11-12T13:09:20;97598.44;;;7.05;84.29
74270;BME280;62754;48.252;11.654;2022-11-12T13:11:48;97592.75;;;6.98;84.30
74270;BME280;62754;48.252;11.654;2022-11-12T13:28:09;97586.63;;;6.81;85.48
74270;BME280;62754;48.252;11.654;2022-11-12T13:33:01;97593.69;;;6.76;85.79
74270;BME280;62754;48.252;11.654;2022-11-12T13:35:27;97591.56;;;6.85;85.50
74270;BME280;62754;48.252;11.654;2022-11-12T13:40:41;97588.50;;;7.17;84.55
74270;BME280;62754;48.252;11.654;2022-11-12T13:45:49;97583.88;;;6.85;85.40
74270;BME280;62754;48.252;11.654;2022-11-12T13:51:10;97580.03;;;6.95;85.78
74270;BME280;62754;48.252;11.654;2022-11-12T13:53:37;97577.75;;;6.89;85.92
74270;BME280;62754;48.252;11.654;2022-11-12T13:56:03;97569.47;;;6.83;86.78
74270;BME280;62754;48.252;11.654;2022-11-12T13:58:31;97570.31;;;6.83;86.08
74270;BME280;62754;48.252;11.654;2022-11-12T14:00:59;97561.00;;;6.81;86.65
74270;BME280;62754;48.252;11.654;2022-11-12T14:03:28;97571.56;;;6.73;86.71
74270;BME280;62754;48.252;11.654;2022-11-12T14:06:00;97569.03;;;6.73;87.44
74270;BME280;62754;48.252;11.654;2022-11-12T14:11:47;97569.50;;;6.61;87.59
74270;BME280;62754;48.252;11.654;2022-11-12T14:14:43;97564.44;;;6.39;89.30
74270;BME280;62754;48.252;11.654;2022-11-12T14:22:36;97552.47;;;6.40;88.43
74270;BME280;62754;48.252;11.654;2022-11-12T14:25:03;97555.03;;;6.40;89.58
74270;BME280;62754;48.252;11.654;2022-11-12T14:30:10;97549.06;;;6.39;89.74
74270;BME280;62754;48.252;11.654;2022-11-12T14:32:38;97551.47;;;6.44;89.70
74270;BME280;62754;48.252;11.654;2022-11-12T14:37:51;97538.75;;;6.20;90.26
74270;BME280;62754;48.252;11.654;2022-11-12T14:40:18;97534.06;;;6.10;90.54
74270;BME280;62754;48.252;11.654;2022-11-12T14:42:45;97527.97;;;6.12;91.12
74270;BME280;62754;48.252;11.654;2022-11-12T14:45:19;97529.44;;;6.18;91.17
74270;BME280;62754;48.252;11.654;2022-11-12T14:47:47;97536.19;;;6.20;90.92
74270;BME280;62754;48.252;11.654;2022-11-12T14:50:31;97529.84;;;5.86;92.10
74270;BME280;62754;48.252;11.654;2022-11-12T14:53:04;97520.41;;;5.88;92.32
74270;BME280;62754;48.252;11.654;2022-11-12T14:55:35;97523.28;;;6.02;91.57
74270;BME280;62754;48.252;11.654;2022-11-12T14:58:02;97528.16;;;6.08;91.99
74270;BME280;62754;48.252;11.654;2022-11-12T15:02:56;97524.00;;;6.05;91.16
74270;BME280;62754;48.252;11.654;2022-11-12T15:05:22;97523.50;;;5.96;92.08
74270;BME280;62754;48.252;11.654;2022-11-12T15:08:00;97514.16;;;5.95;92.59